createdAt,value
2022-07-25T00:00:26.099Z,98904.72
2022-07-25T00:02:52.546Z,98899.56
2022-07-25T00:05:20.313Z,98889.81
2022-07-25T00:07:46.819Z,98900.59
2022-07-25T00:10:14.584Z,98895.38
2022-07-25T00:12:42.649Z,98898.25
2022-07-25T00:15:09.911Z,98888.47
2022-07-25T00:17:36.825Z,98887.88
2022-07-25T00:20:04.682Z,98887.25
2022-07-25T00:22:31.340Z,98884.38
2022-07-25T00:24:57.823Z,98880.44
2022-07-25T00:27:25.649Z,98881.03
2022-07-25T00:29:52.121Z,98881.50
2022-07-25T00:32:18.594Z,98879.25
2022-07-25T00:34:45.369Z,98874.00
2022-07-25T00:37:11.894Z,98878.41
2022-07-25T00:39:38.732Z,98868.41
2022-07-25T00:42:06.591Z,98875.28
2022-07-25T00:44:34.393Z,98876.38
2022-07-25T00:47:01.444Z,98874.09
2022-07-25T00:49:28.130Z,98873.63
2022-07-25T00:51:55.111Z,98877.66
2022-07-25T00:54:22.143Z,98874.09
2022-07-25T00:56:49.804Z,98867.81
2022-07-25T00:59:17.164Z,98866.72
2022-07-25T01:01:45.575Z,98858.97
2022-07-25T01:04:12.216Z,98856.03
2022-07-25T01:06:38.911Z,98856.88
2022-07-25T01:09:05.578Z,98854.38
2022-07-25T01:11:33.359Z,98858.75
2022-07-25T01:13:59.890Z,98839.63
2022-07-25T01:16:26.533Z,98840.56
2022-07-25T01:18:53.165Z,98838.97
2022-07-25T01:21:19.638Z,98838.66
2022-07-25T01:23:46.104Z,98830.53
2022-07-25T01:26:12.676Z,98830.84
2022-07-25T01:28:39.204Z,98828.78
2022-07-25T01:31:06.091Z,98830.38
2022-07-25T01:33:34.944Z,98828.31
2022-07-25T01:36:01.504Z,98830.28
2022-07-25T01:38:28.417Z,98821.03
2022-07-25T01:40:54.952Z,98825.66
2022-07-25T01:43:21.466Z,98818.78
2022-07-25T01:45:48.195Z,98817.47
2022-07-25T01:48:14.672Z,98809.56
2022-07-25T01:50:43.566Z,98811.03
2022-07-25T01:53:10.054Z,98808.09
2022-07-25T01:55:36.624Z,98810.81
2022-07-25T01:58:03.388Z,98815.63
2022-07-25T02:00:29.944Z,98814.44
2022-07-25T02:03:15.245Z,98813.53
2022-07-25T02:05:41.852Z,98813.16
2022-07-25T02:08:08.527Z,98805.97
2022-07-25T02:10:37.927Z,98805.50
2022-07-25T02:13:04.432Z,98804.22
2022-07-25T02:15:31.057Z,98802.94
2022-07-25T02:17:57.494Z,98794.13
2022-07-25T02:20:24.163Z,98794.75
2022-07-25T02:22:50.711Z,98795.19
2022-07-25T02:25:17.203Z,98794.22
2022-07-25T02:27:43.805Z,98790.78
2022-07-25T02:30:10.746Z,98789.50
2022-07-25T02:32:37.316Z,98783.31
2022-07-25T02:35:05.466Z,98779.56
2022-07-25T02:37:39.660Z,98783.31
2022-07-25T02:40:07.022Z,98771.09
2022-07-25T02:42:33.527Z,98773.50
2022-07-25T02:45:00.049Z,98766.28
2022-07-25T02:47:26.584Z,98760.63
2022-07-25T02:49:53.216Z,98756.47
2022-07-25T02:52:19.637Z,98764.41
2022-07-25T02:54:46.207Z,98759.13
2022-07-25T02:57:12.856Z,98756.28
2022-07-25T02:59:39.336Z,98755.16
2022-07-25T03:02:05.967Z,98757.28
2022-07-25T03:04:33.452Z,98754.34
2022-07-25T03:07:00.128Z,98758.97
2022-07-25T03:09:26.957Z,98743.50
2022-07-25T03:11:53.521Z,98742.22
2022-07-25T03:14:20.496Z,98730.00
2022-07-25T03:16:47.045Z,98737.59
2022-07-25T03:19:14.368Z,98740.75
2022-07-25T03:21:40.916Z,98737.06
2022-07-25T03:24:07.744Z,98743.13
2022-07-25T03:26:34.612Z,98741.34
2022-07-25T03:29:01.193Z,98741.34
2022-07-25T03:31:28.600Z,98742.44
2022-07-25T03:33:55.172Z,98734.84
2022-07-25T03:36:21.785Z,98731.91
2022-07-25T03:38:48.412Z,98739.00
2022-07-25T03:41:14.916Z,98728.94
2022-07-25T03:43:41.552Z,98726.66
2022-07-25T03:46:08.261Z,98727.41
2022-07-25T03:48:34.893Z,98721.97
2022-07-25T03:51:06.555Z,98723.78
2022-07-25T03:53:33.959Z,98704.53
2022-07-25T03:56:00.575Z,98711.66
2022-07-25T03:58:27.183Z,98703.91
2022-07-25T04:00:53.630Z,98709.06
2022-07-25T04:03:21.659Z,98699.59
2022-07-25T04:05:48.086Z,98707.88
2022-07-25T04:08:15.094Z,98697.53
2022-07-25T04:10:41.603Z,98695.41
2022-07-25T04:13:08.360Z,98694.97
2022-07-25T04:15:34.862Z,98697.53
2022-07-25T04:18:01.450Z,98681.53
2022-07-25T04:20:29.324Z,98696.25
2022-07-25T04:22:55.888Z,98687.44
2022-07-25T04:25:22.590Z,98691.63
2022-07-25T04:27:49.113Z,98685.94
2022-07-25T04:30:24.405Z,98675.03
2022-07-25T04:32:51.932Z,98679.41
2022-07-25T04:35:18.648Z,98673.94
2022-07-25T04:37:45.196Z,98684.66
2022-07-25T04:40:12.316Z,98675.19
2022-07-25T04:42:38.790Z,98674.69
2022-07-25T04:45:05.726Z,98667.22
2022-07-25T04:47:32.320Z,98673.50
2022-07-25T04:49:58.921Z,98667.50
2022-07-25T04:52:25.415Z,98666.56
2022-07-25T04:54:52.020Z,98665.63
2022-07-25T04:57:18.949Z,98667.72
2022-07-25T04:59:45.563Z,98657.16
2022-07-25T05:02:12.206Z,98656.78
2022-07-25T05:04:43.440Z,98657.31
2022-07-25T05:07:11.672Z,98651.88
2022-07-25T05:09:38.338Z,98656.84
2022-07-25T05:12:04.939Z,98650.34
2022-07-25T05:14:31.508Z,98646.06
2022-07-25T05:16:58.036Z,98645.47
2022-07-25T05:19:24.592Z,98641.78
2022-07-25T05:21:51.069Z,98647.75
2022-07-25T05:24:17.663Z,98652.16
2022-07-25T05:26:44.311Z,98640.09
2022-07-25T05:29:10.818Z,98635.63
2022-07-25T05:31:37.429Z,98628.63
2022-07-25T05:34:05.861Z,98627.78
2022-07-25T05:36:33.115Z,98633.16
2022-07-25T05:39:00.222Z,98632.06
2022-07-25T05:41:26.843Z,98611.16
2022-07-25T05:43:53.466Z,98626.41
2022-07-25T05:46:20.162Z,98616.03
2022-07-25T05:48:46.853Z,98624.97
2022-07-25T05:51:13.586Z,98613.34
2022-07-25T05:53:40.089Z,98603.75
2022-07-25T05:56:07.056Z,98608.19
2022-07-25T05:58:33.568Z,98605.91
2022-07-25T06:01:00.269Z,98605.09
2022-07-25T06:03:26.886Z,98600.66
2022-07-25T06:05:56.206Z,98609.56
2022-07-25T06:08:22.714Z,98611.50
2022-07-25T06:10:49.336Z,98597.16
2022-07-25T06:13:15.838Z,98602.66
2022-07-25T06:15:42.534Z,98605.63
2022-07-25T06:18:09.162Z,98610.34
2022-07-25T06:20:35.793Z,98604.34
2022-07-25T06:23:03.798Z,98598.69
2022-07-25T06:25:30.957Z,98596.56
2022-07-25T06:27:58.393Z,98594.09
2022-07-25T06:30:24.950Z,98595.31
2022-07-25T06:32:51.645Z,98592.00
2022-07-25T06:35:18.272Z,98600.00
2022-07-25T06:37:45.149Z,98598.63
2022-07-25T06:40:12.000Z,98592.56
2022-07-25T06:42:39.926Z,98596.13
2022-07-25T06:45:09.628Z,98591.72
2022-07-25T06:47:37.398Z,98589.50
2022-07-25T06:50:09.003Z,98585.09
2022-07-25T06:52:38.138Z,98597.50
2022-07-25T06:55:06.061Z,98596.91
2022-07-25T06:57:32.555Z,98598.88
2022-07-25T06:59:59.173Z,98599.97
2022-07-25T07:02:25.592Z,98594.19
2022-07-25T07:04:52.276Z,98588.94
2022-07-25T07:07:18.840Z,98594.19
2022-07-25T07:09:45.477Z,98590.88
2022-07-25T07:12:11.932Z,98588.69
2022-07-25T07:14:39.298Z,98591.44
2022-07-25T07:17:05.820Z,98583.16
2022-07-25T07:19:33.229Z,98584.84
2022-07-25T07:21:59.735Z,98591.44
2022-07-25T07:24:26.472Z,98580.41
2022-07-25T07:26:54.264Z,98578.50
2022-07-25T07:29:21.709Z,98567.75
2022-07-25T07:31:50.936Z,98563.84
2022-07-25T07:34:17.493Z,98559.41
2022-07-25T07:36:44.202Z,98555.56
2022-07-25T07:39:11.052Z,98560.84
2022-07-25T07:41:37.747Z,98562.50
2022-07-25T07:44:05.590Z,98555.31
2022-07-25T07:46:33.401Z,98564.72
2022-07-25T07:49:00.017Z,98561.09
2022-07-25T07:51:26.633Z,98557.81
2022-07-25T07:54:11.748Z,98548.44
2022-07-25T07:56:39.033Z,98556.13
2022-07-25T07:59:06.092Z,98547.59
2022-07-25T08:01:32.945Z,98548.16
2022-07-25T08:03:59.516Z,98547.84
2022-07-25T08:06:27.848Z,98551.75
2022-07-25T08:08:54.852Z,98546.47
2022-07-25T08:11:21.554Z,98545.06
2022-07-25T08:13:48.101Z,98554.94
2022-07-25T08:16:14.784Z,98557.69
2022-07-25T08:18:41.724Z,98557.38
2022-07-25T08:21:09.020Z,98566.19
2022-07-25T08:23:39.256Z,98557.03
2022-07-25T08:26:07.519Z,98551.97
2022-07-25T08:28:34.087Z,98549.38
2022-07-25T08:31:01.660Z,98547.31
2022-07-25T08:33:29.803Z,98555.06
2022-07-25T08:35:58.605Z,98543.69
2022-07-25T08:38:27.731Z,98546.38
2022-07-25T08:40:56.410Z,98537.66
2022-07-25T08:43:23.696Z,98533.03
2022-07-25T08:45:54.941Z,98533.56
2022-07-25T08:48:25.988Z,98537.25
2022-07-25T08:50:54.295Z,98537.56
2022-07-25T08:53:37.914Z,98533.69
2022-07-25T08:56:13.350Z,98540.69
2022-07-25T08:58:44.582Z,98547.56
2022-07-25T09:01:13.871Z,98550.31
2022-07-25T09:03:42.848Z,98542.44
2022-07-25T09:06:22.250Z,98548.06
2022-07-25T09:08:54.280Z,98544.34
2022-07-25T09:11:31.946Z,98543.78
2022-07-25T09:14:04.492Z,98535.19
2022-07-25T09:16:35.617Z,98525.38
2022-07-25T09:19:08.209Z,98528.50
2022-07-25T09:21:34.971Z,98537.44
2022-07-25T09:24:11.825Z,98544.88
2022-07-25T09:26:50.734Z,98540.72
2022-07-25T09:29:25.724Z,98537.03
2022-07-25T09:31:54.636Z,98540.94
2022-07-25T09:34:40.599Z,98526.53
2022-07-25T09:37:10.053Z,98527.63
2022-07-25T09:39:46.073Z,98535.66
2022-07-25T09:42:25.885Z,98542.28
2022-07-25T09:45:01.439Z,98551.03
2022-07-25T09:47:28.126Z,98542.22
2022-07-25T09:49:55.111Z,98538.19
2022-07-25T09:52:21.923Z,98550.94
2022-07-25T09:54:49.314Z,98552.81
2022-07-25T09:57:16.538Z,98556.28
2022-07-25T09:59:44.537Z,98559.13
2022-07-25T10:02:37.096Z,98560.28
2022-07-25T10:05:13.833Z,98565.81
2022-07-25T10:07:51.164Z,98566.34
2022-07-25T10:10:31.105Z,98563.56
2022-07-25T10:13:11.076Z,98549.47
2022-07-25T10:15:52.256Z,98551.38
2022-07-25T10:18:21.791Z,98559.13
2022-07-25T10:20:50.681Z,98568.22
2022-07-25T10:23:23.090Z,98556.34
2022-07-25T10:26:22.205Z,98564.44
2022-07-25T10:28:51.348Z,98561.53
2022-07-25T10:31:22.487Z,98573.81
2022-07-25T10:34:00.515Z,98567.34
2022-07-25T10:36:42.074Z,98562.16
2022-07-25T10:39:10.683Z,98570.09
2022-07-25T10:41:44.490Z,98570.66
2022-07-25T10:44:16.012Z,98573.22
2022-07-25T10:46:44.787Z,98567.34
2022-07-25T10:49:29.056Z,98560.72
2022-07-25T10:52:01.119Z,98558.34
2022-07-25T10:54:36.531Z,98557.81
2022-07-25T10:57:05.795Z,98558.88
2022-07-25T10:59:37.886Z,98575.63
2022-07-25T11:02:06.767Z,98603.16
2022-07-25T11:04:34.043Z,98607.97
2022-07-25T11:07:12.337Z,98612.13
2022-07-25T11:09:42.900Z,98606.34
2022-07-25T11:12:09.854Z,98599.13
2022-07-25T11:14:41.261Z,98578.97
2022-07-25T11:17:22.705Z,98569.84
2022-07-25T11:20:00.048Z,98557.69
2022-07-25T11:22:28.591Z,98546.09
2022-07-25T11:24:57.095Z,98543.59
2022-07-25T11:27:35.817Z,98559.31
2022-07-25T11:30:14.192Z,98559.81
2022-07-25T11:32:43.653Z,98569.69
2022-07-25T11:35:11.588Z,98581.56
2022-07-25T11:37:41.573Z,98576.16
2022-07-25T11:40:09.285Z,98573.25
2022-07-25T11:42:44.436Z,98581.50
2022-07-25T11:45:29.444Z,98574.25
2022-07-25T11:48:05.183Z,98574.75
2022-07-25T11:50:33.818Z,98568.50
2022-07-25T11:53:01.614Z,98572.00
2022-07-25T11:55:30.869Z,98569.25
2022-07-25T11:58:00.978Z,98568.44
2022-07-25T12:00:29.059Z,98569.44
2022-07-25T12:03:07.902Z,98558.63
2022-07-25T12:05:34.587Z,98564.31
2022-07-25T12:08:23.060Z,98560.72
2022-07-25T12:10:51.439Z,98556.31
2022-07-25T12:13:24.359Z,98561.56
2022-07-25T12:15:50.926Z,98569.88
2022-07-25T12:18:18.478Z,98573.19
2022-07-25T12:20:45.026Z,98579.84
2022-07-25T12:23:13.062Z,98573.97
2022-07-25T12:25:46.577Z,98580.72
2022-07-25T12:28:14.221Z,98571.94
2022-07-25T12:30:43.037Z,98577.28
2022-07-25T12:33:10.145Z,98585.53
2022-07-25T12:35:39.432Z,98574.22
2022-07-25T12:38:06.060Z,98583.56
2022-07-25T12:40:33.036Z,98569.66
2022-07-25T12:43:01.066Z,98566.81
2022-07-25T12:45:27.992Z,98565.25
2022-07-25T12:47:55.043Z,98557.13
2022-07-25T12:50:21.958Z,98559.56
2022-07-25T12:52:48.649Z,98563.47
2022-07-25T12:55:17.482Z,98558.69
2022-07-25T12:57:45.131Z,98557.22
2022-07-25T13:00:15.098Z,98557.34
2022-07-25T13:02:42.404Z,98560.13
2022-07-25T13:05:10.118Z,98561.75
2022-07-25T13:07:37.037Z,98563.94
2022-07-25T13:10:04.070Z,98565.97
2022-07-25T13:12:31.126Z,98557.56
2022-07-25T13:14:57.710Z,98560.44
2022-07-25T13:17:27.453Z,98562.75
2022-07-25T13:19:56.374Z,98555.13
2022-07-25T13:22:23.079Z,98555.53
2022-07-25T13:24:49.719Z,98566.03
2022-07-25T13:27:18.507Z,98569.53
2022-07-25T13:29:45.375Z,98591.06
2022-07-25T13:32:12.088Z,98597.50
2022-07-25T13:34:39.402Z,98610.72
2022-07-25T13:37:06.217Z,98610.69
2022-07-25T13:39:33.725Z,98621.66
2022-07-25T13:42:00.265Z,98630.75
2022-07-25T13:44:26.833Z,98627.88
2022-07-25T13:46:53.449Z,98626.63
2022-07-25T13:49:20.061Z,98628.59
2022-07-25T13:51:47.500Z,98636.19
2022-07-25T13:54:14.243Z,98629.78
2022-07-25T13:56:42.388Z,98611.34
2022-07-25T13:59:10.096Z,98598.09
2022-07-25T14:01:37.304Z,98610.53
2022-07-25T14:04:04.025Z,98600.19
2022-07-25T14:06:33.321Z,98600.28
2022-07-25T14:09:00.167Z,98604.69
2022-07-25T14:11:30.447Z,98605.50
2022-07-25T14:13:57.969Z,98606.59
2022-07-25T14:16:24.524Z,98604.63
2022-07-25T14:18:51.263Z,98602.09
2022-07-25T14:21:18.248Z,98601.53
2022-07-25T14:23:44.807Z,98610.53
2022-07-25T14:26:11.426Z,98603.94
2022-07-25T14:28:39.012Z,98604.53
2022-07-25T14:31:05.543Z,98604.56
2022-07-25T14:33:32.063Z,98599.69
2022-07-25T14:35:59.234Z,98598.88
2022-07-25T14:38:25.832Z,98607.44
2022-07-25T14:40:52.328Z,98600.84
2022-07-25T14:43:19.100Z,98601.41
2022-07-25T14:45:45.681Z,98598.63
2022-07-25T14:48:12.393Z,98612.94
2022-07-25T14:50:38.910Z,98610.69
2022-07-25T14:53:05.651Z,98623.94
2022-07-25T14:55:32.186Z,98626.19
2022-07-25T14:58:02.483Z,98611.53
2022-07-25T15:00:30.059Z,98620.09
2022-07-25T15:02:57.046Z,98625.63
2022-07-25T15:05:23.687Z,98639.16
2022-07-25T15:07:51.375Z,98638.88
2022-07-25T15:10:18.108Z,98641.66
2022-07-25T15:12:44.607Z,98636.69
2022-07-25T15:15:11.441Z,98637.25
2022-07-25T15:17:38.607Z,98644.41
2022-07-25T15:20:05.810Z,98654.22
2022-07-25T15:22:32.352Z,98650.50
2022-07-25T15:25:27.511Z,98656.63
2022-07-25T15:27:45.289Z,98652.22
2022-07-25T15:30:13.031Z,98648.31
2022-07-25T15:32:40.106Z,98643.56
2022-07-25T15:35:07.629Z,98642.41
2022-07-25T15:37:34.237Z,98638.91
2022-07-25T15:40:00.892Z,98635.56
2022-07-25T15:42:29.363Z,98649.75
2022-07-25T15:45:22.298Z,98647.81
2022-07-25T15:47:46.265Z,98651.88
2022-07-25T15:50:18.216Z,98658.09
2022-07-25T15:52:44.866Z,98650.81
2022-07-25T15:55:11.478Z,98667.78
2022-07-25T15:57:38.287Z,98670.53
2022-07-25T16:00:07.578Z,98673.03
2022-07-25T16:02:34.682Z,98672.69
2022-07-25T16:05:02.090Z,98678.13
2022-07-25T16:07:28.534Z,98685.19
2022-07-25T16:09:56.586Z,98692.66
2022-07-25T16:12:28.443Z,98689.31
2022-07-25T16:14:55.449Z,98708.75
2022-07-25T16:17:22.280Z,98715.38
2022-07-25T16:19:48.860Z,98731.78
2022-07-25T16:22:16.553Z,98737.22
2022-07-25T16:24:43.248Z,98738.91
2022-07-25T16:27:10.078Z,98731.25
2022-07-25T16:29:37.479Z,98741.06
2022-07-25T16:32:04.549Z,98743.66
2022-07-25T16:34:31.833Z,98743.25
2022-07-25T16:36:58.720Z,98751.41
2022-07-25T16:39:26.312Z,98757.22
2022-07-25T16:41:53.118Z,98743.59
2022-07-25T16:44:20.008Z,98745.69
2022-07-25T16:46:46.645Z,98758.22
2022-07-25T16:49:15.431Z,98750.56
2022-07-25T16:51:45.489Z,98768.00
2022-07-25T16:54:12.414Z,98760.34
2022-07-25T16:56:39.768Z,98754.56
2022-07-25T16:59:08.263Z,98755.53
2022-07-25T17:01:35.354Z,98753.50
2022-07-25T17:04:02.038Z,98757.81
2022-07-25T17:06:28.670Z,98747.81
2022-07-25T17:08:55.298Z,98755.88
2022-07-25T17:11:22.429Z,98759.75
2022-07-25T17:13:48.988Z,98762.34
2022-07-25T17:16:15.721Z,98755.38
2022-07-25T17:18:42.283Z,98745.16
2022-07-25T17:21:09.547Z,98741.91
2022-07-25T17:23:36.463Z,98749.66
2022-07-25T17:26:05.457Z,98745.06
2022-07-25T17:28:32.341Z,98755.78
2022-07-25T17:30:58.931Z,98752.06
2022-07-25T17:33:25.606Z,98755.84
2022-07-25T17:35:52.410Z,98755.38
2022-07-25T17:38:23.750Z,98762.19
2022-07-25T17:40:52.420Z,98748.88
2022-07-25T17:43:19.015Z,98754.78
2022-07-25T17:45:46.528Z,98763.38
2022-07-25T17:48:13.263Z,98759.47
2022-07-25T17:50:39.746Z,98769.19
2022-07-25T17:53:06.285Z,98767.28
2022-07-25T17:55:38.179Z,98759.84
2022-07-25T17:58:05.389Z,98768.06
2022-07-25T18:00:32.676Z,98767.66
2022-07-25T18:02:59.722Z,98763.91
2022-07-25T18:05:26.677Z,98767.47
2022-07-25T18:07:53.864Z,98777.44
2022-07-25T18:10:23.693Z,98769.69
2022-07-25T18:12:50.577Z,98775.25
2022-07-25T18:15:17.560Z,98786.59
2022-07-25T18:17:45.509Z,98789.56
2022-07-25T18:20:13.459Z,98770.63
2022-07-25T18:22:41.393Z,98784.34
2022-07-25T18:25:11.231Z,98790.88
2022-07-25T18:27:40.725Z,98792.56
2022-07-25T18:30:08.762Z,98800.41
2022-07-25T18:32:35.825Z,98794.22
2022-07-25T18:35:04.226Z,98794.56
2022-07-25T18:37:31.168Z,98800.53
2022-07-25T18:39:57.954Z,98808.75
2022-07-25T18:42:29.392Z,98801.88
2022-07-25T18:44:56.776Z,98796.78
2022-07-25T18:47:26.482Z,98803.69
2022-07-25T18:49:59.715Z,98802.16
2022-07-25T18:52:26.696Z,98813.78
2022-07-25T18:54:53.232Z,98808.94
2022-07-25T18:57:19.948Z,98823.69
2022-07-25T18:59:46.486Z,98816.78
2022-07-25T19:02:13.338Z,98811.78
2022-07-25T19:04:40.224Z,98813.19
2022-07-25T19:07:07.489Z,98811.41
2022-07-25T19:09:34.029Z,98820.06
2022-07-25T19:12:01.361Z,98809.09
2022-07-25T19:14:28.786Z,98815.97
2022-07-25T19:16:55.528Z,98819.16
2022-07-25T19:19:22.061Z,98820.44
2022-07-25T19:21:48.936Z,98819.34
2022-07-25T19:24:15.858Z,98823.63
2022-07-25T19:26:42.630Z,98833.81
2022-07-25T19:29:10.178Z,98827.75
2022-07-25T19:31:40.234Z,98824.19
2022-07-25T19:34:08.737Z,98840.78
2022-07-25T19:36:35.611Z,98838.50
2022-07-25T19:39:02.727Z,98844.03
2022-07-25T19:41:30.521Z,98844.19
2022-07-25T19:43:57.244Z,98850.41
2022-07-25T19:46:25.039Z,98851.50
2022-07-25T19:48:52.012Z,98859.94
2022-07-25T19:53:45.204Z,98864.88
2022-07-25T19:56:11.669Z,98860.78
2022-07-25T19:58:41.085Z,98873.03
2022-07-25T20:01:10.063Z,98872.28
2022-07-25T20:03:36.861Z,98876.09
2022-07-25T20:06:07.825Z,98877.41
2022-07-25T20:08:35.532Z,98878.75
2022-07-25T20:11:02.075Z,98881.72
2022-07-25T20:13:29.631Z,98879.63
2022-07-25T20:15:56.315Z,98877.13
2022-07-25T20:18:22.756Z,98890.00
2022-07-25T20:20:49.292Z,98890.25
2022-07-25T20:23:15.911Z,98886.94
2022-07-25T20:25:42.599Z,98891.00
2022-07-25T20:28:09.251Z,98886.59
2022-07-25T20:30:35.919Z,98894.59
2022-07-25T20:33:05.432Z,98895.69
2022-07-25T20:35:36.517Z,98902.63
2022-07-25T20:38:03.266Z,98910.63
2022-07-25T20:40:36.411Z,98902.91
2022-07-25T20:43:04.500Z,98903.94
2022-07-25T20:45:31.002Z,98912.56
2022-07-25T20:47:57.847Z,98910.91
2022-07-25T20:50:24.409Z,98906.03
2022-07-25T20:52:51.133Z,98919.06
2022-07-25T20:55:17.680Z,98923.28
2022-07-25T20:57:48.657Z,98928.16
2022-07-25T21:00:17.030Z,98936.53
2022-07-25T21:02:43.739Z,98940.50
2022-07-25T21:05:10.289Z,98939.66
2022-07-25T21:07:36.967Z,98945.09
2022-07-25T21:10:04.622Z,98940.94
2022-07-25T21:12:32.913Z,98947.88
2022-07-25T21:15:01.043Z,98951.44
2022-07-25T21:17:27.651Z,98948.34
2022-07-25T21:19:54.190Z,98946.63
2022-07-25T21:22:20.815Z,98960.06
2022-07-25T21:24:49.286Z,98956.31
2022-07-25T21:27:16.729Z,98966.59
2022-07-25T21:29:44.367Z,98972.84
2022-07-25T21:32:13.597Z,98968.88
2022-07-25T21:34:41.399Z,98976.66
2022-07-25T21:37:08.264Z,98974.34
2022-07-25T21:39:35.236Z,98980.00
2022-07-25T21:42:01.805Z,98984.00
2022-07-25T21:44:29.211Z,98987.53
2022-07-25T21:46:55.751Z,98983.78
2022-07-25T21:49:42.715Z,98983.38
2022-07-25T21:52:13.398Z,98988.59
2022-07-25T21:54:42.775Z,98987.34
2022-07-25T21:57:13.942Z,98988.19
2022-07-25T21:59:44.957Z,98984.63
2022-07-25T22:02:12.188Z,98992.53
2022-07-25T22:04:39.449Z,99003.78
2022-07-25T22:07:06.293Z,99005.47
2022-07-25T22:09:32.925Z,99006.69
2022-07-25T22:11:59.552Z,99020.06
2022-07-25T22:14:26.325Z,99014.63
2022-07-25T22:16:53.269Z,99012.56
2022-07-25T22:19:22.475Z,99019.66
2022-07-25T22:21:50.237Z,99027.63
2022-07-25T22:24:17.054Z,99024.91
2022-07-25T22:26:43.786Z,99024.91
2022-07-25T22:29:11.345Z,99037.47
2022-07-25T22:31:41.129Z,99025.81
2022-07-25T22:34:08.160Z,99034.81
2022-07-25T22:36:34.825Z,99027.28
2022-07-25T22:39:01.524Z,99041.09
2022-07-25T22:41:27.968Z,99040.25
2022-07-25T22:43:56.529Z,99044.88
2022-07-25T22:46:25.268Z,99047.81
2022-07-25T22:48:52.000Z,99056.16
2022-07-25T22:51:18.514Z,99050.94
2022-07-25T22:53:45.186Z,99057.63
2022-07-25T22:56:11.695Z,99061.59
2022-07-25T22:58:38.273Z,99051.56
2022-07-25T23:01:04.868Z,99056.19
2022-07-25T23:03:32.794Z,99054.72
2022-07-25T23:05:59.748Z,99049.06
2022-07-25T23:08:27.303Z,99051.19
2022-07-25T23:10:53.928Z,99046.56
2022-07-25T23:13:20.531Z,99048.69
2022-07-25T23:15:51.024Z,99051.59
2022-07-25T23:18:17.899Z,99050.34
2022-07-25T23:20:44.565Z,99047.00
2022-07-25T23:23:11.060Z,99051.41
2022-07-25T23:25:37.501Z,99053.06
2022-07-25T23:28:04.233Z,99049.94
2022-07-25T23:30:30.745Z,99051.41
2022-07-25T23:32:57.372Z,99050.75
2022-07-25T23:35:24.162Z,99057.47
2022-07-25T23:37:50.653Z,99052.03
2022-07-25T23:40:17.239Z,99041.16
2022-07-25T23:42:43.813Z,99039.03
2022-07-25T23:45:10.711Z,99043.88
2022-07-25T23:47:39.566Z,99039.88
2022-07-25T23:50:08.409Z,99044.69
2022-07-25T23:52:34.914Z,99045.28
2022-07-25T23:55:01.556Z,99047.13
2022-07-25T23:57:28.061Z,99042.72
2022-07-25T23:59:54.634Z,99048.97
